Terminal Aerodrome Forecast
Issued by NWS St Louis, MO

Home | Current Version | Previous Version | Text Only | Print | Product List | Glossary On
Versions: 1 2 3 4 5 6 7 8 9 10 11 12 13
000
FTUS43 KLSX 062327
TAFCOU
TAF
KCOU 062327Z 0700/0724 29006KT P6SM FEW250
     FM070900 30005KT P6SM BKN110
     FM072100 30009KT P6SM OVC050=

USA.gov is the U.S. government's official web portal to all federal, state and local government web resources and services.